Lexington, NC

5:49 PM EDT on July 25, 2017 (GMT -0400)
Davidson County

Weather History for KEXX - December, 2011

Change the Weather History Date:

Wednesday, December 7, 2011

  Actual Average (KINT) Record (KINT)
Temperature  
Mean Temperature 52 °F -  
Max Temperature 62 °F 51 °F 77 °F (1998)
Min Temperature 41 °F 34 °F 11 °F (1977)
Degree Days  
Heating Degree Days 14    
Growing Degree Days 2 (Base 50)    
Moisture  
Dew Point 56 °F    
Average Humidity 97    
Maximum Humidity 100    
Minimum Humidity 70    
Precipitation  
Precipitation 0.69 in - - ()
Sea Level Pressure  
Sea Level Pressure 29.77 in    
Wind  
Wind Speed 8 mph (SSW)    
Max Wind Speed 16 mph    
Max Gust Speed 31 mph    
Visibility 8 miles    
Events Rain    
Averages and records for this station are not official NWS values.
T = Trace of Precipitation, MM = Missing Value Source: NWS Daily Summary

Daily Weather History Graph

Daily Weather History Graph

Search for Another Location

Airport or City:

Trip Planner

Search our weather history database for the weather conditions in past years. The results will help you decide how hot, cold, wet, or windy it might be!

Date:

Astronomy

Dec. 07, 2011 Rise Set
Actual Time 7:17 AM EST 5:07 PM EST
Civil Twilight 6:49 AM EST 5:35 PM EST
Nautical Twilight 6:17 AM EST 6:07 PM EST
Astronomical Twilight 5:46 AM EST 6:38 PM EST
Moon 3:05 PM EST (12/7) 4:34 AM EST (12/7)
Length of Visible Light 10h 46m
Length of Day
9h 49m
Waxing Gibbous, 92% of the Moon is Illuminated
Dec 7
Waxing Gibbous
Dec 10
Full
Dec 17
Last Quarter
Dec 24
New
Jan 1
First Quarter

Hourly Weather History & Observations

Time (EST) Temp. Windchill Dew Point Humidity Pressure Visibility Wind Dir Wind Speed Gust Speed Precip Events Conditions
12:15 AM 62.6 °F - 60.8 °F 94% 29.95 in 10.0 mi South 6.9 mph - N/A   Scattered Clouds
12:35 AM 60.8 °F - 60.8 °F 100% 29.93 in 10.0 mi SSE 6.9 mph - N/A   Mostly Cloudy
12:55 AM 60.8 °F - 60.8 °F 100% 29.92 in 10.0 mi South 5.8 mph - N/A   Scattered Clouds
1:15 AM 60.8 °F - 60.8 °F 100% 29.91 in 10.0 mi South 5.8 mph - N/A   Mostly Cloudy
1:35 AM 60.8 °F - 60.8 °F 100% 29.91 in 10.0 mi South 8.1 mph - N/A   Mostly Cloudy
1:55 AM 60.8 °F - 60.8 °F 100% 29.90 in 10.0 mi South 13.8 mph 17.3 mph N/A   Mostly Cloudy
2:15 AM 60.8 °F - 60.8 °F 100% 29.90 in 10.0 mi South 10.4 mph - N/A   Mostly Cloudy
2:35 AM 60.8 °F - 60.8 °F 100% 29.89 in 10.0 mi South 6.9 mph 18.4 mph N/A   Scattered Clouds
2:55 AM 60.8 °F - 60.8 °F 100% 29.89 in 10.0 mi South 10.4 mph - N/A   Mostly Cloudy
3:15 AM 60.8 °F - 60.8 °F 100% 29.88 in 10.0 mi South 8.1 mph 17.3 mph N/A   Mostly Cloudy
3:35 AM 60.8 °F - 60.8 °F 100% 29.88 in 10.0 mi South 8.1 mph - N/A   Mostly Cloudy
3:55 AM 60.8 °F - 60.8 °F 100% 29.87 in 10.0 mi South 8.1 mph - N/A   Mostly Cloudy
4:15 AM 60.8 °F - 60.8 °F 100% 29.86 in 10.0 mi South 8.1 mph - N/A   Scattered Clouds
4:35 AM 62.6 °F - 62.6 °F 100% 29.85 in 10.0 mi South 10.4 mph - N/A   Mostly Cloudy
5:15 AM 62.6 °F - 60.8 °F 94% 29.84 in 10.0 mi SSW 9.2 mph 17.3 mph N/A   Mostly Cloudy
5:35 AM 62.6 °F - 60.8 °F 94% 29.84 in 10.0 mi South 9.2 mph - N/A   Overcast
5:55 AM 62.6 °F - 60.8 °F 94% 29.83 in 10.0 mi South 11.5 mph - N/A   Mostly Cloudy
6:15 AM 62.6 °F - 60.8 °F 94% 29.83 in 10.0 mi South 11.5 mph 18.4 mph N/A   Overcast
6:35 AM 62.6 °F - 60.8 °F 94% 29.83 in 10.0 mi South 9.2 mph - N/A   Mostly Cloudy
6:55 AM 62.6 °F - 60.8 °F 94% 29.83 in 10.0 mi South 5.8 mph - N/A   Mostly Cloudy
7:15 AM 62.6 °F - 60.8 °F 94% 29.83 in 10.0 mi SSW 8.1 mph - N/A Rain Light Rain
7:35 AM 60.8 °F - 60.8 °F 100% 29.83 in 3.0 mi South 9.2 mph - 0.04 in Rain Rain
7:55 AM 59.0 °F - 59.0 °F 100% 29.83 in 4.0 mi South 6.9 mph 17.3 mph 0.07 in Rain Light Rain
8:15 AM 59.0 °F - 59.0 °F 100% 29.83 in 2.0 mi South 9.2 mph - 0.05 in Rain Rain
8:35 AM 59.0 °F - 59.0 °F 100% 29.82 in 3.0 mi South 5.8 mph - 0.09 in Rain Rain
8:55 AM 59.0 °F - 59.0 °F 100% 29.82 in 3.0 mi South 3.5 mph - 0.11 in Rain Rain
9:15 AM 59.0 °F - 59.0 °F 100% 29.81 in 2.0 mi South 5.8 mph - 0.03 in Rain Rain
9:35 AM 59.0 °F - 59.0 °F 100% 29.80 in 3.0 mi South 8.1 mph - 0.05 in Rain Light Rain
9:55 AM 59.0 °F - 59.0 °F 100% 29.80 in 4.0 mi South 6.9 mph - 0.05 in   Drizzle
10:15 AM 59.0 °F - 59.0 °F 100% 29.79 in 3.0 mi South 6.9 mph - 0.01 in Rain Light Rain
10:35 AM 59.0 °F - 59.0 °F 100% 29.78 in 4.0 mi South 8.1 mph - 0.02 in Rain Heavy Rain
10:55 AM 59.0 °F - 59.0 °F 100% 29.76 in 2.5 mi South 11.5 mph 18.4 mph 0.03 in Rain Heavy Rain
11:15 AM 59.0 °F - 59.0 °F 100% 29.76 in 2.0 mi South 10.4 mph 16.1 mph 0.02 in Rain Heavy Rain
11:35 AM 59.0 °F - 59.0 °F 100% 29.75 in 2.5 mi South 10.4 mph 16.1 mph 0.04 in   Heavy Drizzle
11:55 AM 59.0 °F - 59.0 °F 100% 29.73 in 2.5 mi SSW 9.2 mph 19.6 mph 0.08 in   Heavy Drizzle
12:15 PM 59.0 °F - 59.0 °F 100% 29.71 in 2.5 mi SSW 11.5 mph - 0.03 in Rain Heavy Rain
12:35 PM 59.0 °F - 59.0 °F 100% 29.70 in 2.0 mi South 10.4 mph - 0.05 in Rain Rain
12:55 PM 59.0 °F - 59.0 °F 100% 29.68 in 7.0 mi South 6.9 mph 16.1 mph 0.09 in Rain Rain
1:15 PM 60.8 °F - 60.8 °F 100% 29.66 in 10.0 mi South 9.2 mph - N/A   Overcast
1:35 PM 60.8 °F - 60.8 °F 100% 29.63 in 10.0 mi South 9.2 mph - N/A Rain Light Rain
1:55 PM 60.8 °F - 60.8 °F 100% 29.61 in 10.0 mi South 8.1 mph 16.1 mph N/A   Overcast
2:15 PM 60.8 °F - 60.8 °F 100% 29.59 in 10.0 mi South 8.1 mph - N/A   Overcast
2:35 PM 60.8 °F - 60.8 °F 100% 29.57 in 10.0 mi South 11.5 mph 18.4 mph N/A   Mostly Cloudy
2:55 PM 60.8 °F - 60.8 °F 100% 29.57 in 4.0 mi South 13.8 mph 26.5 mph N/A Rain Light Rain
3:15 PM 60.8 °F - 60.8 °F 100% 29.55 in 10.0 mi South 10.4 mph 16.1 mph 0.01 in Rain Light Rain
3:35 PM 60.8 °F - 60.8 °F 100% 29.54 in 10.0 mi South 10.4 mph 20.7 mph 0.01 in Rain Rain
3:55 PM 60.8 °F - 60.8 °F 100% 29.59 in 2.5 mi SW 16.1 mph 31.1 mph 0.12 in Rain Heavy Rain
4:15 PM 55.4 °F - 55.4 °F 100% 29.60 in 5.0 mi WSW 11.5 mph 26.5 mph 0.04 in Rain Rain
4:55 PM 53.6 °F - 53.6 °F 100% 29.60 in 10.0 mi WSW 6.9 mph - 0.10 in Rain Light Rain
5:15 PM 53.6 °F - 53.6 °F 100% 29.59 in 10.0 mi SSW 5.8 mph - 0.01 in Rain Light Rain
5:35 PM 53.6 °F - 53.6 °F 100% 29.60 in 10.0 mi SW 8.1 mph 16.1 mph 0.01 in   Scattered Clouds
5:55 PM 53.6 °F - 53.6 °F 100% 29.60 in 10.0 mi WSW 5.8 mph - 0.01 in   Mostly Cloudy
6:15 PM 53.6 °F - 51.8 °F 94% 29.63 in 10.0 mi SW 10.4 mph 18.4 mph N/A   Mostly Cloudy
6:35 PM 51.8 °F - 50.0 °F 94% 29.64 in 10.0 mi WSW 12.7 mph 20.7 mph N/A   Mostly Cloudy
7:15 PM 44.6 °F 38.1 °F 44.6 °F 100% 29.73 in 7.0 mi NW 13.8 mph 26.5 mph 0.01 in Rain Rain
7:35 PM 41.0 °F 35.2 °F 41.0 °F 100% 29.76 in 7.0 mi NW 9.2 mph 24.2 mph 0.03 in Rain Rain
7:55 PM 41.0 °F 34.7 °F 37.4 °F 87% 29.77 in 10.0 mi NW 10.4 mph 23.0 mph 0.03 in   Light Drizzle
8:15 PM 41.0 °F 35.2 °F 35.6 °F 81% 29.80 in 10.0 mi NW 9.2 mph - N/A   Clear
8:35 PM 41.0 °F 35.8 °F 33.8 °F 76% 29.82 in 10.0 mi NW 8.1 mph - N/A   Clear
8:55 PM 41.0 °F 37.1 °F 32.0 °F 70% 29.84 in 10.0 mi WNW 5.8 mph 18.4 mph N/A   Clear
9:15 PM 41.0 °F 38.0 °F 32.0 °F 70% 29.87 in 10.0 mi WNW 4.6 mph - N/A   Clear
9:35 PM 41.0 °F 37.1 °F 32.0 °F 70% 29.90 in 10.0 mi WNW 5.8 mph - N/A   Clear
9:55 PM 39.2 °F 35.9 °F 32.0 °F 75% 29.91 in 10.0 mi West 4.6 mph - N/A   Clear
10:15 PM 39.2 °F - 32.0 °F 75% 29.94 in 10.0 mi Calm Calm - N/A   Clear
10:35 PM 37.4 °F - 32.0 °F 81% 29.94 in 10.0 mi Calm Calm - N/A   Clear
10:55 PM 37.4 °F 34.9 °F 32.0 °F 81% 29.97 in 10.0 mi West 3.5 mph - N/A   Clear
11:15 PM 37.4 °F 34.9 °F 32.0 °F 81% 29.98 in 10.0 mi West 3.5 mph - N/A   Clear
11:35 PM 37.4 °F - 32.0 °F 81% 29.97 in 10.0 mi Calm Calm - N/A   Clear
11:55 PM 35.6 °F - 32.0 °F 87% 29.99 in 10.0 mi Calm Calm - N/A   Clear